Shamrock, Texas
Current Conditions -  °F | °C
As of 8:55 AM on Saturday 01 Nov 2014 (Local Time) from KHHF Reporting Station
Scattered Clouds Scattered Clouds  
Wind Chill:   Ceiling: Unl
Heat Index:   Visibility: NA
Dew Point: -5°   Wind: 12mph
Humidity: 56%   Direction: 170°S
Pressure: 30.31"   Gusts: 18mph
Location:  35.21°N, 100.25°W
Report Text: KHHF 011355Z AUTO 17010G16KT SCT100 04/M04 A3031 RMK AO2 T00361045 PWINO
Loading
Personal Weather Stations






























Interactive Weather Map
Tropical Storm Tracking
New forecast layout! Learn more

10-Day Weather Forecast

Advertisements
Track Severe Weather on mobile